Dutch Fork, South Carolina
Current Conditions -  °F | °C
As of 10:56 AM on Friday 24 Oct 2014 (Local Time) from KCAE Reporting Station
Scattered Clouds Scattered Clouds  
Wind Chill: 61°   Ceiling: Unl
Heat Index: 61°   Visibility: 10mi
Dew Point: 43°   Wind: 3mph
Humidity: 52%   Direction: 360°N
Pressure: 30.1"   Gusts: NA
Location:  34.0549°N, 81.113°W
Report Text: KCAE 241456Z 36003KT 10SM SCT220 16/06 A3010 RMK AO2 SLP191 T01610061 51012
Loading
Personal Weather Stations






























Interactive Weather Map
Tropical Storm Tracking
New forecast layout! Learn more

10-Day Weather Forecast

Advertisements
Track Severe Weather on mobile